Time;durP1;ratioP1;P1;durP2;ratioP2;P2;SDS_P1;SDS_P2;PMS_P1;PMS_P2;Temp;Humidity;BMP_temperature;BMP_pressure;BME280_temperature;BME280_humidity;BME280_pressure;Samples;Min_cycle;Max_cycle;Signal;HPM_P1;HPM_P2
2021/04/24 00:00:47;;;;;;;14.95;10.02;;;;;;;16.98;51.21;102013.59;4957077;28;20047;-61
2021/04/24 00:03:14;;;;;;;12.95;9.68;;;;;;;16.98;51.04;102006.47;4957118;28;20047;-61
2021/04/24 00:05:42;;;;;;;12.43;8.98;;;;;;;16.98;50.94;102005.63;4958610;28;20172;-61
2021/04/24 00:08:11;;;;;;;11.25;8.80;;;;;;;16.94;50.98;102004.13;4956561;28;20106;-64
2021/04/24 00:10:41;;;;;;;12.95;9.07;;;;;;;16.91;51.28;102006.97;4943207;28;20052;-61
2021/04/24 00:13:09;;;;;;;16.38;9.35;;;;;;;16.88;51.31;102004.50;4956688;28;20444;-68
2021/04/24 00:15:36;;;;;;;13.70;9.18;;;;;;;16.85;51.20;101999.38;4956076;28;20047;-61
2021/04/24 00:18:04;;;;;;;13.38;9.20;;;;;;;16.82;51.29;102005.72;4956471;28;20520;-61
2021/04/24 00:20:31;;;;;;;13.77;9.27;;;;;;;16.78;51.35;102001.56;4956611;28;20043;-62
2021/04/24 00:22:57;;;;;;;12.63;9.18;;;;;;;16.77;51.71;102010.47;4956169;28;20105;-61
2021/04/24 00:25:24;;;;;;;16.02;10.48;;;;;;;16.74;51.53;102002.72;4956680;28;20051;-61
2021/04/24 00:27:50;;;;;;;11.20;9.77;;;;;;;16.69;51.57;102000.34;4954908;28;20118;-61
2021/04/24 00:30:17;;;;;;;13.95;10.82;;;;;;;16.67;51.65;102004.03;4956381;28;20059;-67
2021/04/24 00:32:44;;;;;;;14.65;9.13;;;;;;;16.63;51.51;102004.25;4956243;28;20047;-62
2021/04/24 00:35:12;;;;;;;16.23;9.88;;;;;;;16.61;51.26;101995.53;4956098;28;20479;-62
2021/04/24 00:37:38;;;;;;;13.77;9.73;;;;;;;16.59;51.34;101997.41;4954261;28;20047;-61
2021/04/24 00:40:06;;;;;;;15.25;9.40;;;;;;;16.58;51.48;101997.50;4956269;28;20095;-61
2021/04/24 00:42:32;;;;;;;16.17;9.75;;;;;;;16.55;51.64;101993.25;4956339;28;20106;-61
2021/04/24 00:44:59;;;;;;;15.73;9.85;;;;;;;16.54;51.57;101996.00;4955948;28;20086;-61
2021/04/24 00:47:26;;;;;;;16.08;9.88;;;;;;;16.50;51.52;101997.97;4956099;28;20062;-61
2021/04/24 00:49:52;;;;;;;13.82;9.43;;;;;;;16.47;51.53;101995.53;4956091;28;20070;-61
2021/04/24 00:52:20;;;;;;;11.40;8.98;;;;;;;16.44;51.69;101993.94;4955780;28;20055;-62
2021/04/24 00:54:46;;;;;;;14.48;9.50;;;;;;;16.42;51.50;101987.03;4964522;28;20050;-61
2021/04/24 00:57:13;;;;;;;12.60;9.20;;;;;;;16.38;51.63;101994.31;4956095;28;20121;-62
2021/04/24 00:59:40;;;;;;;14.35;10.68;;;;;;;16.37;51.34;101994.41;4956031;28;20050;-61
2021/04/24 01:02:09;;;;;;;19.20;10.00;;;;;;;16.34;51.57;101987.50;4955721;28;20044;-62
2021/04/24 01:04:36;;;;;;;17.25;11.20;;;;;;;16.34;51.69;101995.44;4955891;28;20087;-61
2021/04/24 01:07:05;;;;;;;16.75;9.90;;;;;;;16.33;51.59;101991.09;4954856;28;20060;-61
2021/04/24 01:09:36;;;;;;;11.77;9.88;;;;;;;16.31;51.49;101982.38;4950308;28;20424;-61
2021/04/24 01:12:11;;;;;;;14.50;10.20;;;;;;;16.29;51.67;101993.06;4948054;29;20044;-67
2021/04/24 01:14:49;;;;;;;12.82;9.90;;;;;;;16.25;51.83;101988.91;4942345;29;20504;-62
2021/04/24 01:17:20;;;;;;;13.48;9.18;;;;;;;16.23;51.63;101987.28;4955445;28;20050;-63
2021/04/24 01:19:46;;;;;;;14.63;10.00;;;;;;;16.19;51.74;101986.63;4955694;28;20051;-62
2021/04/24 01:22:13;;;;;;;13.35;9.70;;;;;;;16.15;51.70;101990.38;4955448;28;20044;-62
2021/04/24 01:24:39;;;;;;;14.02;10.45;;;;;;;16.12;51.94;101986.13;4955442;28;20051;-61
2021/04/24 01:27:06;;;;;;;15.02;10.70;;;;;;;16.12;51.90;101993.22;4955135;28;20472;-61
2021/04/24 01:29:35;;;;;;;13.40;10.00;;;;;;;16.09;52.08;101988.97;4965327;28;20089;-61
2021/04/24 01:32:02;;;;;;;12.30;9.20;;;;;;;16.07;51.96;101982.91;4955092;28;20420;-62
2021/04/24 01:34:29;;;;;;;15.52;10.40;;;;;;;16.05;51.97;101990.09;4955295;28;20043;-62
2021/04/24 01:36:57;;;;;;;14.55;9.90;;;;;;;16.01;52.11;101988.59;4955107;28;20098;-61
2021/04/24 01:39:25;;;;;;;15.60;10.18;;;;;;;15.98;52.07;101989.59;4954843;28;20079;-62
2021/04/24 01:41:51;;;;;;;18.05;10.43;;;;;;;15.95;52.29;101994.25;4955035;28;20055;-61
2021/04/24 01:44:18;;;;;;;13.07;10.00;;;;;;;15.92;52.11;101992.63;4962498;28;20054;-62
2021/04/24 01:46:45;;;;;;;13.93;9.60;;;;;;;15.90;52.11;101989.22;4956635;28;20051;-62
2021/04/24 01:49:11;;;;;;;12.18;9.93;;;;;;;15.87;52.37;101986.75;4954984;28;20051;-64
2021/04/24 01:51:38;;;;;;;13.35;10.40;;;;;;;15.84;52.16;101986.91;4954599;28;20057;-61
2021/04/24 01:54:05;;;;;;;16.88;11.77;;;;;;;15.81;52.12;101985.31;4953834;29;20559;-61
2021/04/24 01:56:56;;;;;;;16.40;10.80;;;;;;;15.79;52.27;101987.16;4954971;28;20057;-61
2021/04/24 01:59:26;;;;;;;18.42;10.30;;;;;;;15.77;52.51;101990.84;4959399;28;20047;-60
2021/04/24 02:01:55;;;;;;;14.35;10.80;;;;;;;15.75;52.43;101987.44;4957977;28;20051;-61
2021/04/24 02:04:23;;;;;;;13.40;10.48;;;;;;;15.72;52.55;101991.13;4953546;29;20051;-61
2021/04/24 02:06:49;;;;;;;14.40;10.70;;;;;;;15.68;52.38;101985.16;4954256;28;20047;-62
2021/04/24 02:09:17;;;;;;;14.85;11.05;;;;;;;15.67;52.46;101982.59;4951408;28;20051;-61
2021/04/24 02:12:17;;;;;;;14.60;10.63;;;;;;;15.66;52.71;101978.25;4945403;29;20043;-61
2021/04/24 02:14:48;;;;;;;19.50;11.13;;;;;;;15.66;52.48;101975.59;4946878;28;20102;-61
2021/04/24 02:17:17;;;;;;;13.43;10.95;;;;;;;15.67;52.56;101964.09;4961267;28;20055;-61
2021/04/24 02:19:47;;;;;;;12.93;10.63;;;;;;;15.67;52.70;101972.03;4954648;28;20039;-61
2021/04/24 02:22:14;;;;;;;16.92;11.25;;;;;;;15.68;52.65;101973.72;4954510;28;20102;-61
2021/04/24 02:24:51;;;;;;;16.17;11.55;;;;;;;15.66;52.58;101970.31;4954378;28;20055;-60
2021/04/24 02:27:18;;;;;;;19.00;11.07;;;;;;;15.65;52.85;101969.44;4954261;28;20058;-62
2021/04/24 02:29:45;;;;;;;17.52;11.05;;;;;;;15.63;52.92;101968.69;4954185;28;20062;-61
2021/04/24 02:32:13;;;;;;;15.93;10.93;;;;;;;15.59;52.84;101964.53;4955478;28;20106;-61
2021/04/24 02:34:43;;;;;;;13.50;11.13;;;;;;;15.56;53.00;101971.78;4957440;28;20051;-61
2021/04/24 02:37:10;;;;;;;15.77;11.10;;;;;;;15.52;52.88;101969.31;4954032;28;20107;-61
2021/04/24 02:39:39;;;;;;;14.75;11.23;;;;;;;15.51;52.86;101964.09;4954222;28;20471;-62
2021/04/24 02:42:09;;;;;;;15.88;11.40;;;;;;;15.54;52.84;101965.72;4954221;28;20051;-61
2021/04/24 02:44:35;;;;;;;16.08;11.10;;;;;;;15.56;52.94;101963.84;4953914;28;20078;-61
2021/04/24 02:47:03;;;;;;;17.15;11.75;;;;;;;15.56;52.80;101958.56;4954083;28;20054;-61
2021/04/24 02:49:29;;;;;;;18.20;11.85;;;;;;;15.58;53.05;101959.31;4951138;28;20054;-61
2021/04/24 02:51:56;;;;;;;14.80;11.90;;;;;;;15.58;52.88;101961.94;4953919;28;20381;-61
2021/04/24 02:54:24;;;;;;;15.02;12.10;;;;;;;15.58;53.09;101954.00;4954053;28;20051;-62
2021/04/24 02:56:51;;;;;;;15.73;11.65;;;;;;;15.58;52.83;101965.47;4953952;28;20055;-64
2021/04/24 02:59:17;;;;;;;13.57;10.57;;;;;;;15.55;52.91;101959.50;4954006;28;20119;-61
2021/04/24 03:01:44;;;;;;;15.93;12.27;;;;;;;15.52;52.67;101956.06;4953076;28;20114;-61
2021/04/24 03:04:12;;;;;;;17.10;11.88;;;;;;;15.47;52.91;101960.78;4949577;28;20134;-61
2021/04/24 03:06:38;;;;;;;16.88;11.23;;;;;;;15.43;52.94;101956.63;4950265;28;20075;-68
2021/04/24 03:09:05;;;;;;;15.52;11.38;;;;;;;15.38;52.75;101960.47;4948932;28;20456;-61
2021/04/24 03:11:32;;;;;;;15.88;12.45;;;;;;;15.34;52.67;101963.28;4939532;29;20317;-66
2021/04/24 03:13:58;;;;;;;15.43;11.98;;;;;;;15.32;52.71;101959.88;4950472;28;20113;-61
2021/04/24 03:16:25;;;;;;;15.77;11.70;;;;;;;15.27;52.78;101961.91;4950435;28;20043;-62
2021/04/24 03:18:53;;;;;;;18.27;13.13;;;;;;;15.25;52.79;101955.03;4950711;28;20055;-61
2021/04/24 03:21:21;;;;;;;17.02;12.40;;;;;;;15.22;53.02;101957.84;4952668;28;20098;-61
2021/04/24 03:23:48;;;;;;;16.38;11.32;;;;;;;15.15;52.98;101952.06;4950661;28;20051;-62
2021/04/24 03:26:15;;;;;;;15.93;11.43;;;;;;;15.09;53.30;101957.69;4950221;28;20174;-61
2021/04/24 03:28:42;;;;;;;17.38;11.45;;;;;;;15.06;53.22;101965.78;4950445;28;20102;-61
2021/04/24 03:31:08;;;;;;;15.63;11.63;;;;;;;15.00;53.49;101959.91;4950362;28;20051;-61
2021/04/24 03:33:35;;;;;;;15.02;11.35;;;;;;;14.96;53.54;101963.66;4950567;28;20122;-61
2021/04/24 03:36:02;;;;;;;16.52;11.60;;;;;;;14.93;53.50;101968.25;4950367;28;20051;-62
2021/04/24 03:38:28;;;;;;;16.00;11.55;;;;;;;14.89;53.46;101967.56;4961722;28;20055;-68
2021/04/24 03:40:55;;;;;;;19.00;12.55;;;;;;;14.88;53.52;101965.03;4950295;28;20051;-62
2021/04/24 03:43:21;;;;;;;14.55;10.80;;;;;;;14.83;53.55;101967.91;4950456;28;20050;-61
2021/04/24 03:45:47;;;;;;;16.38;10.73;;;;;;;14.83;53.64;101975.84;4950574;28;20051;-62
2021/04/24 03:48:13;;;;;;;15.02;11.60;;;;;;;14.80;53.53;101971.56;4950212;28;20087;-62
2021/04/24 03:50:39;;;;;;;15.75;11.32;;;;;;;14.79;53.57;101967.25;4950349;28;20043;-62
2021/04/24 03:53:06;;;;;;;15.98;11.13;;;;;;;14.78;53.63;101962.91;4958606;28;20043;-61
2021/04/24 03:55:32;;;;;;;14.88;11.38;;;;;;;14.76;53.73;101972.69;4950461;28;20102;-62
2021/04/24 03:58:00;;;;;;;14.88;12.13;;;;;;;14.73;53.67;101975.50;4950468;28;20496;-69
2021/04/24 04:00:29;;;;;;;15.75;10.98;;;;;;;14.71;53.58;101979.19;4950717;28;20047;-61
2021/04/24 04:03:00;;;;;;;14.95;11.52;;;;;;;14.67;53.58;101981.13;4953740;28;20055;-61
2021/04/24 04:05:32;;;;;;;17.42;11.55;;;;;;;14.63;53.72;101980.41;4953470;28;20039;-62
2021/04/24 04:07:58;;;;;;;19.33;11.38;;;;;;;14.59;53.75;101976.22;4953502;28;20055;-61
2021/04/24 04:10:26;;;;;;;24.55;11.73;;;;;;;14.57;53.86;101979.88;4951952;28;20046;-61
2021/04/24 04:12:54;;;;;;;25.80;11.70;;;;;;;14.56;53.76;101983.47;4954082;28;20047;-61
2021/04/24 04:15:22;;;;;;;19.00;12.85;;;;;;;14.55;53.81;101982.63;4953369;28;20567;-61
2021/04/24 04:17:55;;;;;;;19.33;12.77;;;;;;;14.53;54.04;101979.19;4953408;28;20106;-61
2021/04/24 04:20:21;;;;;;;33.10;12.68;;;;;;;14.52;54.22;101977.47;4953460;28;20051;-63
2021/04/24 04:22:48;;;;;;;22.38;12.52;;;;;;;14.51;54.31;101981.06;4953511;28;20047;-62
2021/04/24 04:25:15;;;;;;;22.17;11.90;;;;;;;14.50;54.36;101985.50;4953202;28;20051;-68
2021/04/24 04:27:42;;;;;;;19.77;11.65;;;;;;;14.48;54.38;101984.72;4954096;28;20119;-65
2021/04/24 04:30:10;;;;;;;21.38;12.20;;;;;;;14.48;54.44;101995.28;4953099;28;20043;-63
2021/04/24 04:32:37;;;;;;;27.80;13.00;;;;;;;14.47;54.45;101983.00;4952955;28;20484;-61
2021/04/24 04:35:05;;;;;;;21.33;13.10;;;;;;;14.48;54.46;101991.78;4952902;28;20416;-61
2021/04/24 04:37:31;;;;;;;22.50;12.05;;;;;;;14.46;54.53;101991.88;4953315;28;20047;-61
2021/04/24 04:39:58;;;;;;;23.63;12.40;;;;;;;14.46;54.78;101997.16;4952749;28;20598;-61
2021/04/24 04:42:25;;;;;;;24.73;12.82;;;;;;;14.42;54.77;101989.47;4952765;28;20104;-63
2021/04/24 04:44:51;;;;;;;18.88;12.20;;;;;;;14.43;54.87;101993.81;4952872;28;20055;-65
2021/04/24 04:47:17;;;;;;;23.85;12.45;;;;;;;14.43;54.83;101999.94;4952601;28;20062;-61
2021/04/24 04:49:44;;;;;;;24.65;12.32;;;;;;;14.42;54.60;101997.41;4952667;28;20409;-61
2021/04/24 04:52:17;;;;;;;23.85;13.02;;;;;;;14.39;54.98;102000.22;4952521;28;20636;-61
2021/04/24 04:54:46;;;;;;;20.73;13.32;;;;;;;14.40;55.12;102008.03;4952612;28;20508;-61
2021/04/24 04:57:12;;;;;;;21.48;11.77;;;;;;;14.40;55.13;102009.81;4952865;28;20120;-61
2021/04/24 04:59:38;;;;;;;22.83;12.63;;;;;;;14.39;55.10;102008.13;4951994;28;20452;-62
2021/04/24 05:02:04;;;;;;;22.60;13.05;;;;;;;14.38;55.29;102007.25;4952487;28;20044;-61
2021/04/24 05:04:35;;;;;;;15.65;11.85;;;;;;;14.39;55.45;102006.34;4952737;28;20048;-61
2021/04/24 05:07:02;;;;;;;20.80;13.32;;;;;;;14.43;55.52;102010.50;4952182;28;20098;-62
2021/04/24 05:09:28;;;;;;;18.88;12.35;;;;;;;14.44;55.69;102000.81;4947548;28;20047;-61
2021/04/24 05:11:55;;;;;;;19.05;12.50;;;;;;;14.49;55.71;102009.34;4943955;28;20488;-62
2021/04/24 05:14:22;;;;;;;21.88;13.43;;;;;;;14.51;55.52;102008.34;4964074;28;20044;-61
2021/04/24 05:16:48;;;;;;;17.63;12.80;;;;;;;14.52;55.62;102012.69;4952102;28;20058;-62
2021/04/24 05:19:15;;;;;;;20.58;14.13;;;;;;;14.55;55.62;102016.97;4952112;28;20051;-61
2021/04/24 05:21:41;;;;;;;23.30;14.02;;;;;;;14.56;55.84;102012.50;4952349;28;20098;-62
2021/04/24 05:24:08;;;;;;;17.33;12.00;;;;;;;14.58;56.01;102010.66;4952155;28;20079;-62
2021/04/24 05:26:34;;;;;;;18.58;12.18;;;;;;;14.61;56.00;102019.25;4951987;28;20047;-65
2021/04/24 05:29:00;;;;;;;17.33;13.55;;;;;;;14.57;56.16;102022.16;4946746;28;20051;-68
2021/04/24 05:31:27;;;;;;;18.88;13.05;;;;;;;14.54;56.34;102017.88;4950182;29;20047;-68
2021/04/24 05:33:54;;;;;;;24.90;14.70;;;;;;;14.59;56.57;102017.63;4951986;28;20065;-61
2021/04/24 05:36:21;;;;;;;21.52;13.93;;;;;;;14.67;56.60;102015.47;4951706;28;20054;-62
2021/04/24 05:38:52;;;;;;;21.55;13.35;;;;;;;14.68;56.55;102018.03;4952027;28;20051;-62
2021/04/24 05:41:22;;;;;;;21.77;13.75;;;;;;;14.69;56.68;102018.91;4951965;28;20460;-62
2021/04/24 05:43:55;;;;;;;21.75;13.65;;;;;;;14.72;56.93;102017.88;4951372;28;20051;-67
2021/04/24 05:46:24;;;;;;;20.63;12.70;;;;;;;14.80;56.80;102026.22;4951675;28;20048;-68
2021/04/24 05:48:51;;;;;;;19.75;13.63;;;;;;;14.84;56.97;102019.84;4951637;28;20051;-62
2021/04/24 05:51:18;;;;;;;19.88;13.75;;;;;;;14.93;56.90;102021.13;4951468;28;20071;-61
2021/04/24 05:53:46;;;;;;;22.00;13.15;;;;;;;15.01;56.66;102024.22;4951589;28;20051;-61
2021/04/24 05:56:14;;;;;;;19.50;14.05;;;;;;;15.11;56.65;102028.06;4951752;28;20057;-65
2021/04/24 05:58:40;;;;;;;22.65;13.30;;;;;;;15.19;56.64;102020.53;4951723;28;20102;-66
2021/04/24 06:01:07;;;;;;;16.90;13.68;;;;;;;15.29;56.70;102027.97;4953845;28;20047;-62
2021/04/24 06:03:33;;;;;;;16.58;12.60;;;;;;;15.37;56.70;102028.38;4951596;28;20043;-63
2021/04/24 06:05:59;;;;;;;18.48;13.18;;;;;;;15.45;56.48;102027.94;4951714;28;20054;-62
2021/04/24 06:08:25;;;;;;;18.63;12.73;;;;;;;15.48;56.42;102031.28;4951529;28;20106;-62
2021/04/24 06:10:51;;;;;;;17.50;12.55;;;;;;;15.56;55.96;102035.28;4937955;28;20552;-61
2021/04/24 06:13:18;;;;;;;19.83;12.98;;;;;;;15.59;55.56;102038.63;4951388;28;20047;-64
2021/04/24 06:15:44;;;;;;;21.63;14.40;;;;;;;15.61;55.53;102038.53;4946302;28;20109;-62
2021/04/24 06:18:10;;;;;;;21.92;15.27;;;;;;;15.58;55.48;102041.31;4935530;28;20107;-67
2021/04/24 06:20:36;;;;;;;20.75;15.05;;;;;;;15.57;55.78;102047.59;4949313;28;20098;-63
2021/04/24 06:23:05;;;;;;;21.70;14.50;;;;;;;15.54;56.38;102056.53;4951210;28;20106;-62
2021/04/24 06:25:31;;;;;;;15.57;11.85;;;;;;;15.49;56.72;102056.78;4932728;28;20054;-64
2021/04/24 06:27:57;;;;;;;14.27;11.38;;;;;;;15.43;57.09;102054.50;4934487;29;20496;-61
2021/04/24 06:30:23;;;;;;;19.25;13.07;;;;;;;15.47;57.03;102050.72;4951212;28;20047;-61
2021/04/24 06:32:52;;;;;;;17.30;13.48;;;;;;;15.55;57.06;102050.28;4958449;28;20055;-62
2021/04/24 06:35:20;;;;;;;18.83;13.90;;;;;;;15.61;56.97;102049.94;4950802;28;20051;-62
2021/04/24 06:37:46;;;;;;;20.92;15.13;;;;;;;15.65;56.56;102051.47;4949767;29;20468;-63
2021/04/24 06:40:14;;;;;;;21.58;15.73;;;;;;;15.64;56.91;102051.56;4951050;28;20043;-61
2021/04/24 06:42:40;;;;;;;22.20;16.02;;;;;;;15.63;57.17;102053.38;4951159;28;20110;-68
2021/04/24 06:45:08;;;;;;;21.65;17.15;;;;;;;15.70;57.03;102045.09;4950713;28;20039;-62
2021/04/24 06:47:35;;;;;;;20.23;16.60;;;;;;;15.76;57.09;102044.72;4950842;28;20061;-62
2021/04/24 06:50:04;;;;;;;20.10;13.88;;;;;;;15.84;57.00;102050.44;4950883;28;20493;-62
2021/04/24 06:52:31;;;;;;;19.13;14.57;;;;;;;15.95;56.95;102048.03;4951123;28;20043;-62
2021/04/24 06:54:57;;;;;;;18.77;14.93;;;;;;;16.08;56.59;102050.81;4950356;28;20047;-62
2021/04/24 06:57:24;;;;;;;19.90;14.90;;;;;;;16.18;56.30;102045.81;4950813;28;20055;-62
2021/04/24 06:59:50;;;;;;;21.40;15.05;;;;;;;16.20;56.36;102043.94;4950362;28;20051;-62
2021/04/24 07:02:17;;;;;;;22.00;15.45;;;;;;;16.20;56.39;102040.44;4950555;28;20043;-62
2021/04/24 07:04:44;;;;;;;22.65;16.92;;;;;;;16.20;56.72;102040.44;4950559;28;20058;-62
2021/04/24 07:07:10;;;;;;;20.15;15.45;;;;;;;16.22;56.69;102034.09;4950188;28;20117;-66
2021/04/24 07:09:37;;;;;;;18.05;14.98;;;;;;;16.27;56.84;102033.84;4932128;28;20208;-65
2021/04/24 07:12:04;;;;;;;25.80;16.13;;;;;;;16.32;56.91;102042.34;4930950;29;20091;-66
2021/04/24 07:14:31;;;;;;;24.25;16.48;;;;;;;16.39;56.93;102042.81;4940926;29;20043;-66
2021/04/24 07:16:57;;;;;;;20.75;16.30;;;;;;;16.45;56.88;102045.94;4941889;29;20062;-67
2021/04/24 07:19:24;;;;;;;19.98;15.55;;;;;;;16.51;56.69;102047.38;4939049;28;20074;-69
2021/04/24 07:21:50;;;;;;;22.40;16.88;;;;;;;16.59;56.98;102045.09;4951997;28;20136;-70
2021/04/24 07:24:17;;;;;;;20.50;16.58;;;;;;;16.65;56.54;102047.38;4943927;28;20055;-67
2021/04/24 07:26:43;;;;;;;19.48;14.73;;;;;;;16.72;56.55;102044.34;4931351;29;20492;-67
2021/04/24 07:29:09;;;;;;;20.05;15.50;;;;;;;16.78;56.34;102049.28;4930324;29;20047;-68
2021/04/24 07:31:35;;;;;;;19.90;15.90;;;;;;;16.81;55.95;102042.00;4932873;29;20048;-67
2021/04/24 07:34:02;;;;;;;19.48;14.90;;;;;;;16.86;55.88;102046.16;4942004;29;20043;-67
2021/04/24 07:36:30;;;;;;;22.48;15.50;;;;;;;16.90;55.71;102045.88;4952097;28;20043;-67
2021/04/24 07:38:57;;;;;;;19.40;14.98;;;;;;;16.95;55.52;102040.28;4946947;28;20051;-68
2021/04/24 07:41:27;;;;;;;17.45;14.05;;;;;;;17.00;55.60;102040.00;4951776;28;20089;-67
2021/04/24 07:43:54;;;;;;;21.48;14.40;;;;;;;17.04;55.50;102038.84;4942127;29;20103;-68
2021/04/24 07:46:20;;;;;;;21.48;14.65;;;;;;;17.08;55.19;102045.69;4948930;29;20054;-68
2021/04/24 07:48:46;;;;;;;18.27;13.82;;;;;;;17.11;55.29;102032.22;4953716;28;20514;-69
2021/04/24 07:51:12;;;;;;;16.95;13.30;;;;;;;17.13;55.07;102036.47;4953830;28;20043;-68
2021/04/24 07:53:39;;;;;;;17.92;14.02;;;;;;;17.22;54.79;102040.34;4953979;28;20047;-68
2021/04/24 07:56:05;;;;;;;17.42;14.57;;;;;;;17.41;54.77;102040.00;4946345;28;20048;-68
2021/04/24 07:58:31;;;;;;;20.33;14.40;;;;;;;17.65;54.54;102043.81;4935529;29;20095;-66
2021/04/24 08:00:57;;;;;;;17.98;14.13;;;;;;;17.83;54.59;102042.59;4934796;29;20107;-67
2021/04/24 08:03:24;;;;;;;17.85;13.93;;;;;;;17.88;54.62;102037.81;4934638;29;20047;-67
2021/04/24 08:05:50;;;;;;;19.30;14.35;;;;;;;17.94;54.00;102039.25;4933564;29;20052;-66
2021/04/24 08:08:16;;;;;;;18.67;14.57;;;;;;;18.00;53.98;102040.66;4934353;29;20053;-67
2021/04/24 08:10:42;;;;;;;18.92;13.95;;;;;;;18.06;54.21;102035.75;4942779;29;20107;-67
2021/04/24 08:13:08;;;;;;;18.35;13.63;;;;;;;18.12;53.62;102042.47;4944834;28;20129;-67
2021/04/24 08:15:35;;;;;;;18.25;15.13;;;;;;;18.17;53.65;102037.69;4934802;29;20063;-68
2021/04/24 08:18:02;;;;;;;17.88;14.07;;;;;;;18.23;53.25;102042.59;4941724;29;20130;-67
2021/04/24 08:20:28;;;;;;;21.20;14.23;;;;;;;18.30;53.05;102034.19;4953656;28;20057;-69
2021/04/24 08:22:55;;;;;;;20.50;14.20;;;;;;;18.32;53.30;102038.47;4950276;28;20243;-67
2021/04/24 08:25:21;;;;;;;21.55;15.45;;;;;;;18.32;53.11;102035.81;4935394;29;20115;-67
2021/04/24 08:27:49;;;;;;;19.38;14.02;;;;;;;18.31;52.65;102042.06;4940030;28;20139;-67
2021/04/24 08:30:16;;;;;;;31.25;16.38;;;;;;;18.35;52.63;102043.56;4953218;28;20043;-67
2021/04/24 08:32:46;;;;;;;21.98;14.20;;;;;;;18.40;52.74;102048.56;4953236;28;20102;-67
2021/04/24 08:35:13;;;;;;;18.88;14.35;;;;;;;18.44;52.49;102052.69;4952244;28;20050;-68
2021/04/24 08:37:41;;;;;;;17.48;13.80;;;;;;;18.52;52.05;102049.50;4952041;28;20564;-67
2021/04/24 08:40:09;;;;;;;17.13;13.23;;;;;;;18.64;51.83;102039.81;4935153;29;20457;-70
2021/04/24 08:42:36;;;;;;;20.55;14.02;;;;;;;18.73;51.79;102040.03;4934266;29;20055;-69
2021/04/24 08:45:18;;;;;;;18.17;14.55;;;;;;;18.90;51.06;102032.69;4939729;29;20075;-70
2021/04/24 08:47:48;;;;;;;19.30;13.65;;;;;;;18.93;51.13;102032.44;4932182;29;20613;-65
2021/04/24 08:50:21;;;;;;;20.33;12.30;;;;;;;19.01;50.65;102024.78;4937310;29;20498;-70
2021/04/24 08:52:49;;;;;;;15.10;11.52;;;;;;;19.22;49.83;102026.84;4935118;29;20056;-70
2021/04/24 08:55:19;;;;;;;17.67;11.82;;;;;;;19.28;49.07;102036.19;4935706;29;20469;-67
2021/04/24 08:57:47;;;;;;;20.40;14.38;;;;;;;19.38;48.80;102029.25;4934086;29;20043;-70
2021/04/24 09:00:16;;;;;;;16.98;12.95;;;;;;;19.39;48.47;102031.78;4932871;29;20058;-67
2021/04/24 09:02:45;;;;;;;15.20;12.02;;;;;;;19.43;48.39;102029.75;4931741;29;20493;-66
2021/04/24 09:05:14;;;;;;;15.43;12.02;;;;;;;19.60;47.59;102020.50;4937541;29;20507;-72
2021/04/24 09:07:42;;;;;;;15.25;12.25;;;;;;;19.65;47.02;102022.81;4933705;29;20104;-65
2021/04/24 09:10:16;;;;;;;14.38;11.82;;;;;;;19.81;46.55;102026.03;4932727;29;20044;-65
2021/04/24 09:12:47;;;;;;;14.65;11.65;;;;;;;19.94;45.93;102022.47;4932417;29;20489;-70
2021/04/24 09:15:24;;;;;;;13.13;10.50;;;;;;;19.94;45.30;102015.31;4934009;29;20047;-65
2021/04/24 09:18:08;;;;;;;10.90;9.30;;;;;;;19.98;44.75;102013.28;4936175;29;20062;-69
2021/04/24 09:20:55;;;;;;;13.05;9.48;;;;;;;20.12;42.95;102010.38;4933001;29;20048;-66
2021/04/24 09:23:27;;;;;;;13.50;9.80;;;;;;;20.17;42.29;102007.38;4932700;29;20452;-64
2021/04/24 09:25:58;;;;;;;13.05;9.10;;;;;;;20.36;42.28;102007.63;4932361;29;20048;-66
2021/04/24 09:28:37;;;;;;;12.82;10.30;;;;;;;20.52;41.47;102001.09;4935604;28;20056;-65
2021/04/24 09:31:09;;;;;;;12.32;9.65;;;;;;;20.77;41.02;101996.50;4932253;29;20047;-67
2021/04/24 09:33:37;;;;;;;14.32;10.40;;;;;;;20.98;41.09;101989.44;4934020;29;20044;-65
2021/04/24 09:36:07;;;;;;;10.27;8.85;;;;;;;21.08;41.13;101989.53;4932785;29;20051;-65
2021/04/24 09:38:36;;;;;;;13.60;10.60;;;;;;;21.01;40.02;101983.88;4939174;28;20054;-67
2021/04/24 09:41:11;;;;;;;12.25;10.48;;;;;;;21.06;38.85;101980.78;4951590;28;20102;-68
2021/04/24 09:44:05;;;;;;;12.63;10.05;;;;;;;21.29;39.00;101981.59;4939464;28;20055;-69
2021/04/24 09:46:54;;;;;;;12.45;10.55;;;;;;;21.35;39.13;101983.72;4951784;28;20401;-68
2021/04/24 09:49:30;;;;;;;15.10;10.65;;;;;;;21.33;39.34;101982.16;4944877;28;20093;-70
2021/04/24 09:52:01;;;;;;;10.57;8.68;;;;;;;21.35;38.83;101985.56;4951442;28;20054;-69
2021/04/24 09:54:34;;;;;;;12.38;8.75;;;;;;;21.43;38.37;101976.91;4951729;28;20122;-64
2021/04/24 09:57:02;;;;;;;11.13;7.93;;;;;;;21.62;37.64;101971.78;4951160;28;20043;-70
2021/04/24 09:59:29;;;;;;;14.20;11.93;;;;;;;21.80;37.08;101968.50;4946230;28;20047;-69
2021/04/24 10:02:08;;;;;;;16.00;11.98;;;;;;;21.94;37.00;101962.84;4935335;29;20039;-65
2021/04/24 10:04:34;;;;;;;12.65;10.68;;;;;;;22.12;36.82;101951.53;4951723;28;20283;-76
2021/04/24 10:07:00;;;;;;;15.23;12.52;;;;;;;22.30;37.91;101962.44;4953042;28;20460;-66
2021/04/24 10:09:32;;;;;;;13.48;10.63;;;;;;;22.37;36.36;101949.41;4951392;28;20106;-66
2021/04/24 10:12:01;;;;;;;14.63;11.15;;;;;;;22.45;36.25;101944.25;4951453;28;20109;-66
2021/04/24 10:14:31;;;;;;;15.88;10.68;;;;;;;22.56;35.98;101949.44;4951162;28;20051;-69
2021/04/24 10:16:58;;;;;;;14.48;11.50;;;;;;;22.65;35.28;101940.63;4941581;28;20059;-68
2021/04/24 10:19:28;;;;;;;14.02;10.18;;;;;;;22.69;35.14;101943.88;4939403;29;20043;-64
2021/04/24 10:21:55;;;;;;;9.82;8.30;;;;;;;22.78;34.89;101932.34;4931864;29;20056;-65
2021/04/24 10:24:23;;;;;;;10.05;7.68;;;;;;;22.86;34.85;101931.66;4931892;29;20044;-64
2021/04/24 10:26:51;;;;;;;8.73;6.88;;;;;;;22.97;34.28;101931.53;4932281;29;20451;-64
2021/04/24 10:29:19;;;;;;;10.23;6.82;;;;;;;23.03;34.59;101927.44;4932847;29;20103;-65
2021/04/24 10:32:32;;;;;;;9.85;7.15;;;;;;;23.15;34.20;101923.66;4932256;28;20051;-65
2021/04/24 10:34:43;;;;;;;11.07;7.35;;;;;;;23.27;34.16;101912.81;4936139;28;20171;-62
2021/04/24 10:37:13;;;;;;;12.25;8.63;;;;;;;23.38;34.15;101906.47;4940675;29;20040;-64
2021/04/24 10:39:41;;;;;;;11.57;7.22;;;;;;;23.48;34.30;101912.66;4950651;28;20066;-64
2021/04/24 10:42:13;;;;;;;11.45;8.75;;;;;;;23.58;33.93;101893.84;4950577;28;20393;-66
2021/04/24 10:45:06;;;;;;;15.38;13.77;;;;;;;23.61;34.17;101894.41;4950710;28;20054;-63
2021/04/24 10:48:15;;;;;;;11.93;8.95;;;;;;;23.72;34.16;101893.41;4941563;28;20058;-63
2021/04/24 10:50:50;;;;;;;11.15;8.32;;;;;;;23.85;33.69;101892.25;4950295;28;20055;-64
2021/04/24 10:53:31;;;;;;;9.63;8.48;;;;;;;23.83;33.06;101878.16;4934094;28;20118;-63
2021/04/24 10:55:59;;;;;;;9.02;8.13;;;;;;;23.82;32.75;101874.63;4931391;29;20279;-63
2021/04/24 10:58:36;;;;;;;10.82;7.45;;;;;;;23.87;32.82;101868.81;4935089;28;20043;-65
2021/04/24 11:01:11;;;;;;;8.48;6.75;;;;;;;23.87;32.13;101867.00;4933544;29;20111;-63
2021/04/24 11:07:28;;;;;;;6.97;6.15;;;;;;;23.99;31.38;101861.47;4931736;29;20051;-63
2021/04/24 11:10:13;;;;;;;8.43;5.85;;;;;;;24.11;31.42;101855.75;4931350;29;20050;-63
2021/04/24 11:12:43;;;;;;;8.88;7.05;;;;;;;24.18;31.14;101855.16;4938643;29;20059;-64
2021/04/24 11:15:19;;;;;;;8.15;6.25;;;;;;;24.23;31.36;101856.41;4939775;29;20056;-62
2021/04/24 11:17:45;;;;;;;;;;;;;;;24.28;31.52;101846.06;4939706;28;20047;-62
2021/04/24 11:20:13;;;;;;;10.80;8.40;;;;;;;24.32;31.57;101845.78;4941505;29;19923;-63
2021/04/24 11:26:06;;;;;;;15.32;10.02;;;;;;;24.36;31.85;101839.94;4949286;29;20047;-66